createdAt,value
2023-01-18T00:00:20.289Z,98941.66
2023-01-18T00:02:49.283Z,98933.88
2023-01-18T00:05:17.453Z,98936.66
2023-01-18T00:07:45.319Z,98931.91
2023-01-18T00:10:13.131Z,98933.50
2023-01-18T00:12:41.058Z,98941.47
2023-01-18T00:15:12.111Z,98941.38
2023-01-18T00:17:47.817Z,98936.31
2023-01-18T00:20:16.025Z,98944.63
2023-01-18T00:22:43.946Z,98934.13
2023-01-18T00:25:12.688Z,98941.91
2023-01-18T00:27:42.055Z,98941.47
2023-01-18T00:30:12.698Z,98948.31
2023-01-18T00:32:40.524Z,98953.34
2023-01-18T00:35:08.940Z,98952.22
2023-01-18T00:37:37.823Z,98958.78
2023-01-18T00:40:08.117Z,98961.22
2023-01-18T00:42:53.455Z,98963.56
2023-01-18T00:45:22.614Z,98964.34
2023-01-18T00:47:50.386Z,98965.63
2023-01-18T00:50:19.689Z,98955.28
2023-01-18T00:52:47.955Z,98964.09
2023-01-18T00:55:16.902Z,98956.06
2023-01-18T00:57:45.250Z,98959.44
2023-01-18T01:00:15.267Z,98955.38
2023-01-18T01:02:44.625Z,98964.28
2023-01-18T01:05:36.109Z,98966.56
2023-01-18T01:08:05.985Z,98962.09
2023-01-18T01:10:34.225Z,98965.56
2023-01-18T01:13:20.165Z,98964.13
2023-01-18T01:16:05.729Z,98960.41
2023-01-18T01:18:52.546Z,98966.47
2023-01-18T01:21:37.953Z,98974.13
2023-01-18T01:24:24.038Z,98974.31
2023-01-18T01:26:51.857Z,98968.19
2023-01-18T01:29:19.685Z,98974.88
2023-01-18T01:31:47.862Z,98976.75
2023-01-18T01:34:17.089Z,98979.81
2023-01-18T01:36:44.925Z,98978.81
2023-01-18T01:39:13.343Z,98986.84
2023-01-18T01:41:41.125Z,98979.03
2023-01-18T01:44:46.560Z,98989.84
2023-01-18T01:47:24.920Z,98983.72
2023-01-18T01:49:59.485Z,98983.53
2023-01-18T01:52:31.329Z,98987.19
2023-01-18T01:55:03.542Z,98986.19
2023-01-18T01:57:34.428Z,98988.81
2023-01-18T02:00:05.263Z,98989.88
2023-01-18T02:02:35.379Z,98985.75
2023-01-18T02:05:08.286Z,98993.38
2023-01-18T02:07:36.505Z,98991.84
2023-01-18T02:10:06.537Z,98988.03
2023-01-18T02:12:36.096Z,98992.38
2023-01-18T02:15:04.896Z,98986.50
2023-01-18T02:17:44.665Z,98999.31
2023-01-18T02:20:50.606Z,98987.50
2023-01-18T02:24:03.172Z,98992.94
2023-01-18T02:26:51.225Z,98991.09
2023-01-18T02:29:26.304Z,98996.53
2023-01-18T02:32:07.241Z,99005.41
2023-01-18T02:34:40.771Z,98994.13
2023-01-18T02:37:15.171Z,99001.69
2023-01-18T02:39:52.807Z,98998.97
2023-01-18T02:42:40.328Z,99002.69
2023-01-18T02:45:35.955Z,98999.97
2023-01-18T02:48:04.423Z,98996.34
2023-01-18T02:50:32.298Z,98999.06
2023-01-18T02:53:00.407Z,98997.34
2023-01-18T02:55:48.986Z,98996.59
2023-01-18T02:58:22.441Z,99007.38
2023-01-18T03:00:57.282Z,99004.97
2023-01-18T03:03:27.085Z,99006.59
2023-01-18T03:06:00.055Z,99012.03
2023-01-18T03:08:32.832Z,99004.91
2023-01-18T03:11:03.711Z,99011.59
2023-01-18T03:13:41.419Z,99010.91
2023-01-18T03:16:16.052Z,99012.53
2023-01-18T03:19:01.426Z,99013.41
2023-01-18T03:21:43.090Z,99015.06
2023-01-18T03:24:11.027Z,99016.44
2023-01-18T03:26:43.662Z,99019.66
2023-01-18T03:29:31.377Z,99023.28
2023-01-18T03:32:24.954Z,99023.28
2023-01-18T03:34:56.620Z,99027.81
2023-01-18T03:37:31.709Z,99022.09
2023-01-18T03:40:03.209Z,99025.34
2023-01-18T03:42:35.920Z,99017.47
2023-01-18T03:45:09.853Z,99016.53
2023-01-18T03:47:39.725Z,99016.28
2023-01-18T03:50:08.330Z,99013.81
2023-01-18T03:52:41.954Z,99008.63
2023-01-18T03:55:13.197Z,99017.38
2023-01-18T03:57:46.385Z,99017.97
2023-01-18T04:00:15.805Z,99022.97
2023-01-18T04:02:46.939Z,99022.97
2023-01-18T04:05:14.913Z,99019.06
2023-01-18T04:07:43.102Z,99019.31
2023-01-18T04:10:12.616Z,99018.47
2023-01-18T04:12:40.672Z,99021.41
2023-01-18T04:15:10.702Z,99024.00
2023-01-18T04:17:39.827Z,99019.75
2023-01-18T04:20:10.835Z,99032.66
2023-01-18T04:22:40.198Z,99030.41
2023-01-18T04:25:08.571Z,99035.34
2023-01-18T04:27:36.473Z,99042.03
2023-01-18T04:30:06.447Z,99036.75
2023-01-18T04:32:34.649Z,99044.56
2023-01-18T04:35:02.944Z,99042.88
2023-01-18T04:37:34.308Z,99053.94
2023-01-18T04:40:02.518Z,99053.31
2023-01-18T04:42:30.537Z,99053.50
2023-01-18T04:44:58.625Z,99058.09
2023-01-18T04:47:26.589Z,99058.31
2023-01-18T04:49:54.439Z,99047.91
2023-01-18T04:52:22.515Z,99060.78
2023-01-18T04:54:51.831Z,99060.34
2023-01-18T04:57:19.819Z,99063.50
2023-01-18T04:59:47.732Z,99069.38
2023-01-18T05:02:16.264Z,99069.19
2023-01-18T05:04:45.006Z,99060.63
2023-01-18T05:07:13.454Z,99073.09
2023-01-18T05:09:41.341Z,99077.47
2023-01-18T05:12:10.520Z,99077.56
2023-01-18T05:14:38.509Z,99078.94
2023-01-18T05:17:07.350Z,99081.56
2023-01-18T05:19:35.530Z,99083.97
2023-01-18T05:22:03.761Z,99086.59
2023-01-18T05:24:31.601Z,99090.22
2023-01-18T05:26:59.445Z,99091.91
2023-01-18T05:29:28.849Z,99093.44
2023-01-18T05:31:56.848Z,99098.09
2023-01-18T05:34:24.792Z,99102.91
2023-01-18T05:36:52.864Z,99112.34
2023-01-18T05:39:21.128Z,99110.56
2023-01-18T05:41:49.254Z,99105.13
2023-01-18T05:44:17.919Z,99114.50
2023-01-18T05:46:47.339Z,99116.94
2023-01-18T05:49:15.489Z,99125.78
2023-01-18T05:51:43.376Z,99126.00
2023-01-18T05:54:12.014Z,99131.59
2023-01-18T05:56:39.982Z,99142.34
2023-01-18T05:59:09.017Z,99152.06
2023-01-18T06:01:38.121Z,99155.72
2023-01-18T06:04:07.676Z,99156.81
2023-01-18T06:06:35.736Z,99156.94
2023-01-18T06:09:03.977Z,99162.34
2023-01-18T06:11:32.195Z,99174.72
2023-01-18T06:14:00.127Z,99174.09
2023-01-18T06:16:28.154Z,99169.25
2023-01-18T06:18:56.204Z,99178.03
2023-01-18T06:21:25.384Z,99172.63
2023-01-18T06:23:53.179Z,99174.66
2023-01-18T06:26:21.296Z,99176.72
2023-01-18T06:28:49.200Z,99173.94
2023-01-18T06:31:17.101Z,99177.56
2023-01-18T06:33:45.379Z,99182.44
2023-01-18T06:36:13.257Z,99179.88
2023-01-18T06:38:42.599Z,99191.16
2023-01-18T06:41:10.442Z,99190.81
2023-01-18T06:43:38.293Z,99190.00
2023-01-18T06:46:09.727Z,99187.22
2023-01-18T06:48:38.598Z,99195.25
2023-01-18T06:51:06.872Z,99199.81
2023-01-18T06:53:37.704Z,99195.88
2023-01-18T06:56:10.432Z,99198.34
2023-01-18T06:58:38.449Z,99201.41
2023-01-18T07:01:07.439Z,99202.97
2023-01-18T07:03:35.629Z,99209.28
2023-01-18T07:06:06.336Z,99210.16
2023-01-18T07:08:34.467Z,99224.34
2023-01-18T07:11:08.358Z,99225.50
2023-01-18T07:13:39.981Z,99228.13
2023-01-18T07:16:09.335Z,99229.66
2023-01-18T07:18:37.178Z,99229.84
2023-01-18T07:21:07.497Z,99235.13
2023-01-18T07:23:37.533Z,99247.06
2023-01-18T07:26:08.310Z,99248.03
2023-01-18T07:28:37.014Z,99246.50
2023-01-18T07:31:06.461Z,99247.97
2023-01-18T07:33:34.301Z,99246.66
2023-01-18T07:36:04.923Z,99253.59
2023-01-18T07:38:32.911Z,99253.22
2023-01-18T07:41:03.200Z,99248.81
2023-01-18T07:43:34.341Z,99252.94
2023-01-18T07:46:04.129Z,99261.50
2023-01-18T07:48:32.762Z,99267.25
2023-01-18T07:51:01.879Z,99269.22
2023-01-18T07:53:31.093Z,99275.91
2023-01-18T07:56:00.518Z,99274.19
2023-01-18T07:58:28.775Z,99271.19
2023-01-18T08:01:03.281Z,99283.19
2023-01-18T08:03:31.449Z,99287.56
2023-01-18T08:05:59.822Z,99289.13
2023-01-18T08:08:29.091Z,99295.78
2023-01-18T08:10:57.809Z,99297.41
2023-01-18T08:13:27.029Z,99306.16
2023-01-18T08:15:55.474Z,99304.44
2023-01-18T08:18:24.914Z,99306.19
2023-01-18T08:20:55.014Z,99306.38
2023-01-18T08:23:23.165Z,99313.16
2023-01-18T08:25:51.188Z,99310.47
2023-01-18T08:28:19.041Z,99315.81
2023-01-18T08:30:50.865Z,99323.53
2023-01-18T08:33:18.741Z,99327.94
2023-01-18T08:35:49.546Z,99331.03
2023-01-18T08:38:17.911Z,99321.59
2023-01-18T08:40:45.763Z,99333.75
2023-01-18T08:43:13.555Z,99339.63
2023-01-18T08:45:41.439Z,99339.53
2023-01-18T08:48:11.883Z,99349.84
2023-01-18T08:50:40.241Z,99351.50
2023-01-18T08:53:09.684Z,99357.88
2023-01-18T08:55:38.354Z,99355.25
2023-01-18T08:58:06.179Z,99353.31
2023-01-18T09:00:34.309Z,99363.91
2023-01-18T09:03:02.826Z,99362.47
2023-01-18T09:05:31.021Z,99367.28
2023-01-18T09:07:59.181Z,99374.19
2023-01-18T09:10:28.562Z,99375.94
2023-01-18T09:12:56.944Z,99378.38
2023-01-18T09:15:25.134Z,99384.94
2023-01-18T09:17:54.009Z,99388.38
2023-01-18T09:20:21.847Z,99397.66
2023-01-18T09:22:49.847Z,99394.06
2023-01-18T09:25:18.473Z,99398.41
2023-01-18T09:27:47.753Z,99400.88
2023-01-18T09:30:17.233Z,99401.94
2023-01-18T09:32:45.185Z,99401.31
2023-01-18T09:35:18.128Z,99414.09
2023-01-18T09:37:46.516Z,99410.31
2023-01-18T09:40:20.529Z,99417.75
2023-01-18T09:42:53.394Z,99415.03
2023-01-18T09:45:30.443Z,99417.47
2023-01-18T09:48:05.038Z,99417.50
2023-01-18T09:50:36.610Z,99417.59
2023-01-18T09:53:16.693Z,99416.31
2023-01-18T09:55:52.166Z,99422.00
2023-01-18T09:58:34.838Z,99419.78
2023-01-18T10:01:06.446Z,99417.94
2023-01-18T10:03:46.032Z,99420.16
2023-01-18T10:06:21.852Z,99420.69
2023-01-18T10:08:56.035Z,99427.97
2023-01-18T10:11:31.441Z,99432.16
2023-01-18T10:14:06.211Z,99424.97
2023-01-18T10:16:35.849Z,99425.88
2023-01-18T10:19:03.810Z,99430.91
2023-01-18T10:21:42.408Z,99427.97
2023-01-18T10:24:30.661Z,99428.38
2023-01-18T10:27:10.972Z,99433.63
2023-01-18T10:30:04.219Z,99429.75
2023-01-18T10:32:36.445Z,99432.69
2023-01-18T10:35:14.528Z,99430.56
2023-01-18T10:37:46.601Z,99439.88
2023-01-18T10:40:15.692Z,99427.00
2023-01-18T10:42:46.548Z,99429.28
2023-01-18T10:45:20.302Z,99434.41
2023-01-18T10:47:48.923Z,99435.63
2023-01-18T10:50:18.322Z,99440.19
2023-01-18T10:52:46.161Z,99437.06
2023-01-18T10:55:19.043Z,99429.94
2023-01-18T10:57:50.028Z,99433.63
2023-01-18T11:00:27.830Z,99439.16
2023-01-18T11:02:57.350Z,99438.13
2023-01-18T11:05:30.511Z,99442.28
2023-01-18T11:08:21.113Z,99440.34
2023-01-18T11:10:59.741Z,99442.84
2023-01-18T11:13:30.982Z,99447.75
2023-01-18T11:16:13.828Z,99449.09
2023-01-18T11:19:00.879Z,99437.31
2023-01-18T11:21:41.163Z,99438.00
2023-01-18T11:24:15.638Z,99432.97
2023-01-18T11:26:55.675Z,99436.91
2023-01-18T11:29:28.576Z,99435.75
2023-01-18T11:32:03.739Z,99451.53
2023-01-18T11:34:33.910Z,99443.44
2023-01-18T11:37:02.847Z,99435.97
2023-01-18T11:39:34.009Z,99432.97
2023-01-18T11:42:17.808Z,99440.09
2023-01-18T11:44:51.844Z,99437.22
2023-01-18T11:47:31.229Z,99441.03
2023-01-18T11:50:20.977Z,99438.75
2023-01-18T11:52:53.270Z,99426.16
2023-01-18T11:55:31.320Z,99433.38
2023-01-18T11:58:01.124Z,99435.19
2023-01-18T12:00:40.041Z,99435.97
2023-01-18T12:03:40.171Z,99439.75
2023-01-18T12:06:19.157Z,99439.09
2023-01-18T12:09:04.916Z,99441.72
2023-01-18T12:11:49.931Z,99439.41
2023-01-18T12:14:35.129Z,99441.09
2023-01-18T12:17:26.719Z,99433.97
2023-01-18T12:20:05.584Z,99442.97
2023-01-18T12:23:02.465Z,99434.91
2023-01-18T12:25:48.508Z,99436.44
2023-01-18T12:28:28.761Z,99439.00
2023-01-18T12:31:10.803Z,99439.66
2023-01-18T12:33:50.599Z,99440.66
2023-01-18T12:36:36.628Z,99444.50
2023-01-18T12:39:14.751Z,99444.50
2023-01-18T12:41:57.376Z,99446.03
2023-01-18T12:45:01.010Z,99440.75
2023-01-18T12:47:36.171Z,99434.88
2023-01-18T12:50:15.328Z,99443.28
2023-01-18T12:52:48.702Z,99445.75
2023-01-18T12:55:21.993Z,99454.25
2023-01-18T12:57:52.705Z,99448.19
2023-01-18T13:00:26.247Z,99450.50
2023-01-18T13:02:57.780Z,99456.19
2023-01-18T13:05:36.169Z,99449.84
2023-01-18T13:08:11.689Z,99453.63
2023-01-18T13:10:39.907Z,99453.25
2023-01-18T13:13:09.021Z,99457.97
2023-01-18T13:15:44.089Z,99452.22
2023-01-18T13:18:17.570Z,99449.91
2023-01-18T13:20:59.536Z,99456.88
2023-01-18T13:23:37.795Z,99461.47
2023-01-18T13:26:17.459Z,99460.94
2023-01-18T13:28:45.400Z,99463.00
2023-01-18T13:31:13.698Z,99458.53
2023-01-18T13:33:45.582Z,99462.03
2023-01-18T13:36:17.428Z,99468.84
2023-01-18T13:38:53.596Z,99472.50
2023-01-18T13:41:24.872Z,99469.81
2023-01-18T13:44:27.350Z,99468.28
2023-01-18T13:46:58.688Z,99474.38
2023-01-18T13:49:38.613Z,99471.13
2023-01-18T13:52:31.313Z,99485.91
2023-01-18T13:55:24.333Z,99480.19
2023-01-18T13:57:55.634Z,99480.03
2023-01-18T14:00:25.734Z,99479.53
2023-01-18T14:02:57.515Z,99479.88
2023-01-18T14:05:28.855Z,99492.81
2023-01-18T14:07:59.788Z,99491.44
2023-01-18T14:10:33.306Z,99489.41
2023-01-18T14:13:03.579Z,99495.25
2023-01-18T14:15:46.639Z,99501.97
2023-01-18T14:18:25.886Z,99501.63
2023-01-18T14:21:05.844Z,99511.53
2023-01-18T14:24:06.103Z,99505.38
2023-01-18T14:26:38.765Z,99513.41
2023-01-18T14:29:11.782Z,99515.19
2023-01-18T14:31:45.601Z,99519.25
2023-01-18T14:34:36.119Z,99514.94
2023-01-18T14:37:04.863Z,99526.13
2023-01-18T14:39:33.285Z,99521.00
2023-01-18T14:42:06.266Z,99524.16
2023-01-18T14:44:57.352Z,99535.56
2023-01-18T14:47:31.848Z,99536.34
2023-01-18T14:50:00.304Z,99527.75
2023-01-18T14:52:32.368Z,99530.22
2023-01-18T14:55:00.271Z,99534.31
2023-01-18T14:57:29.523Z,99532.69
2023-01-18T15:00:08.942Z,99538.97
2023-01-18T15:02:39.778Z,99544.09
2023-01-18T15:05:11.929Z,99538.97
2023-01-18T15:07:41.425Z,99551.31
2023-01-18T15:10:10.620Z,99553.63
2023-01-18T15:12:40.207Z,99556.59
2023-01-18T15:15:16.372Z,99554.13
2023-01-18T15:17:44.531Z,99562.88
2023-01-18T15:20:16.217Z,99563.41
2023-01-18T15:22:44.627Z,99561.63
2023-01-18T15:25:21.590Z,99566.53
2023-01-18T15:27:53.677Z,99570.81
2023-01-18T15:30:24.268Z,99571.91
2023-01-18T15:32:55.508Z,99571.13
2023-01-18T15:35:25.474Z,99573.28
2023-01-18T15:37:53.582Z,99576.72
2023-01-18T15:40:27.783Z,99576.13
2023-01-18T15:43:02.332Z,99583.97
2023-01-18T15:45:33.334Z,99582.19
2023-01-18T15:48:07.140Z,99586.59
2023-01-18T15:50:39.192Z,99588.69
2023-01-18T15:53:12.653Z,99596.94
2023-01-18T15:55:47.487Z,99599.63
2023-01-18T15:58:26.275Z,99601.53
2023-01-18T16:00:59.830Z,99602.38
2023-01-18T16:03:30.307Z,99597.34
2023-01-18T16:06:00.887Z,99598.44
2023-01-18T16:08:28.701Z,99604.47
2023-01-18T16:10:57.849Z,99598.84
2023-01-18T16:13:38.790Z,99611.00
2023-01-18T16:16:20.179Z,99610.38
2023-01-18T16:18:51.752Z,99608.06
2023-01-18T16:21:32.709Z,99608.06
2023-01-18T16:24:01.087Z,99614.56
2023-01-18T16:26:31.418Z,99613.47
2023-01-18T16:29:09.100Z,99612.03
2023-01-18T16:31:41.499Z,99615.28
2023-01-18T16:34:23.640Z,99611.78
2023-01-18T16:36:52.784Z,99615.59
2023-01-18T16:39:21.377Z,99609.47
2023-01-18T16:41:54.661Z,99617.06
2023-01-18T16:44:23.957Z,99616.19
2023-01-18T16:46:53.846Z,99621.56
2023-01-18T16:49:21.770Z,99624.34
2023-01-18T16:51:50.666Z,99630.53
2023-01-18T16:54:19.215Z,99627.78
2023-01-18T16:56:47.655Z,99626.13
2023-01-18T16:59:19.279Z,99632.63
2023-01-18T17:01:49.022Z,99630.00
2023-01-18T17:04:17.362Z,99628.28
2023-01-18T17:06:45.666Z,99625.91
2023-01-18T17:09:21.197Z,99636.59
2023-01-18T17:11:49.955Z,99641.28
2023-01-18T17:14:18.167Z,99649.09
2023-01-18T17:16:49.148Z,99652.59
2023-01-18T17:19:18.998Z,99651.81
2023-01-18T17:21:48.167Z,99652.69
2023-01-18T17:24:16.989Z,99657.25
2023-01-18T17:26:45.244Z,99663.59
2023-01-18T17:29:17.695Z,99661.09
2023-01-18T17:31:52.321Z,99659.31
2023-01-18T17:34:28.216Z,99663.72
2023-01-18T17:36:58.071Z,99659.31
2023-01-18T17:39:37.021Z,99656.22
2023-01-18T17:42:18.931Z,99649.31
2023-01-18T17:44:50.493Z,99660.97
2023-01-18T17:47:18.360Z,99659.00
2023-01-18T17:49:47.542Z,99658.78
2023-01-18T17:52:15.453Z,99665.97
2023-01-18T17:54:43.293Z,99670.03
2023-01-18T17:57:11.093Z,99669.31
2023-01-18T17:59:39.004Z,99672.94
2023-01-18T18:02:07.281Z,99673.56
2023-01-18T18:04:35.149Z,99657.66
2023-01-18T18:07:04.681Z,99678.78
2023-01-18T18:09:32.542Z,99690.88
2023-01-18T18:12:00.363Z,99691.09
2023-01-18T18:14:29.003Z,99689.50
2023-01-18T18:16:56.828Z,99695.56
2023-01-18T18:19:25.406Z,99695.47
2023-01-18T18:21:53.369Z,99689.66
2023-01-18T18:24:22.661Z,99695.91
2023-01-18T18:26:50.552Z,99696.41
2023-01-18T18:29:18.936Z,99693.78
2023-01-18T18:31:47.300Z,99694.41
2023-01-18T18:34:15.165Z,99693.53
2023-01-18T18:36:43.029Z,99700.38
2023-01-18T18:39:11.206Z,99693.69
2023-01-18T18:41:40.609Z,99688.59
2023-01-18T18:44:09.346Z,99696.47
2023-01-18T18:46:37.245Z,99686.94
2023-01-18T18:49:05.096Z,99705.16
2023-01-18T18:51:32.948Z,99707.63
2023-01-18T18:54:01.912Z,99714.09
2023-01-18T18:56:29.771Z,99717.44
2023-01-18T18:58:59.100Z,99716.47
2023-01-18T19:01:29.332Z,99711.31
2023-01-18T19:04:00.281Z,99720.34
2023-01-18T19:06:28.427Z,99726.31
2023-01-18T19:08:57.327Z,99721.22
2023-01-18T19:11:25.612Z,99723.13
2023-01-18T19:13:55.577Z,99717.16
2023-01-18T19:16:26.976Z,99718.06
2023-01-18T19:18:57.574Z,99718.91
2023-01-18T19:21:27.736Z,99718.13
2023-01-18T19:23:58.634Z,99718.06
2023-01-18T19:26:27.883Z,99716.34
2023-01-18T19:28:58.039Z,99721.03
2023-01-18T19:31:27.408Z,99704.25
2023-01-18T19:33:56.407Z,99713.03
2023-01-18T19:36:24.500Z,99716.34
2023-01-18T19:38:59.333Z,99727.78
2023-01-18T19:41:27.829Z,99724.31
2023-01-18T19:43:55.627Z,99723.59
2023-01-18T19:46:23.433Z,99721.97
2023-01-18T19:48:57.360Z,99712.78
2023-01-18T19:51:25.464Z,99712.88
2023-01-18T19:53:54.424Z,99719.41
2023-01-18T19:56:22.572Z,99707.53
2023-01-18T19:58:50.736Z,99714.59
2023-01-18T20:01:34.780Z,99719.97
2023-01-18T20:04:06.289Z,99718.28
2023-01-18T20:06:34.949Z,99726.94
2023-01-18T20:09:05.513Z,99718.75
2023-01-18T20:11:35.530Z,99717.97
2023-01-18T20:14:03.329Z,99714.38
2023-01-18T20:16:31.216Z,99708.25
2023-01-18T20:18:59.254Z,99708.25
2023-01-18T20:21:28.543Z,99708.47
2023-01-18T20:23:57.860Z,99708.59
2023-01-18T20:26:35.852Z,99702.19
2023-01-18T20:29:06.693Z,99702.19
2023-01-18T20:31:36.503Z,99696.81
2023-01-18T20:34:05.640Z,99701.94
2023-01-18T20:36:36.730Z,99700.09
2023-01-18T20:39:05.594Z,99698.03
2023-01-18T20:41:33.423Z,99706.63
2023-01-18T20:44:01.344Z,99702.19
2023-01-18T20:46:32.062Z,99694.38
2023-01-18T20:49:03.065Z,99702.34
2023-01-18T20:51:30.962Z,99701.63
2023-01-18T20:54:00.549Z,99706.56
2023-01-18T20:56:29.870Z,99694.31
2023-01-18T20:58:58.927Z,99703.66
2023-01-18T21:01:32.250Z,99707.13
2023-01-18T21:04:01.566Z,99704.38
2023-01-18T21:06:29.825Z,99704.19
2023-01-18T21:08:59.504Z,99698.66
2023-01-18T21:11:29.387Z,99708.97
2023-01-18T21:13:59.082Z,99705.69
2023-01-18T21:16:28.049Z,99713.31
2023-01-18T21:18:58.697Z,99714.09
2023-01-18T21:21:29.451Z,99713.31
2023-01-18T21:23:57.279Z,99713.09
2023-01-18T21:26:25.261Z,99714.59
2023-01-18T21:28:55.040Z,99711.25
2023-01-18T21:31:23.241Z,99704.66
2023-01-18T21:33:51.131Z,99714.31
2023-01-18T21:36:20.196Z,99712.22
2023-01-18T21:38:48.068Z,99713.81
2023-01-18T21:41:34.260Z,99707.41
2023-01-18T21:44:21.264Z,99707.22
2023-01-18T21:46:51.246Z,99712.13
2023-01-18T21:49:57.742Z,99714.06
2023-01-18T21:52:42.023Z,99713.13
2023-01-18T21:55:10.562Z,99715.28
2023-01-18T21:57:38.731Z,99716.25
2023-01-18T22:00:09.940Z,99714.97
2023-01-18T22:02:38.602Z,99718.19
2023-01-18T22:05:08.497Z,99721.72
2023-01-18T22:07:36.626Z,99719.94
2023-01-18T22:10:06.763Z,99709.16
2023-01-18T22:12:36.509Z,99716.19
2023-01-18T22:15:05.272Z,99717.94
2023-01-18T22:17:34.464Z,99722.16
2023-01-18T22:20:02.341Z,99715.28
2023-01-18T22:22:30.273Z,99713.69
2023-01-18T22:25:00.062Z,99714.06
2023-01-18T22:27:27.976Z,99718.09
2023-01-18T22:29:56.019Z,99716.19
2023-01-18T22:32:23.811Z,99716.69
2023-01-18T22:34:53.299Z,99707.13
2023-01-18T22:37:21.169Z,99718.38
2023-01-18T22:39:49.020Z,99723.22
2023-01-18T22:42:16.886Z,99714.25
2023-01-18T22:44:44.801Z,99721.63
2023-01-18T22:47:12.592Z,99727.41
2023-01-18T22:49:40.401Z,99727.91
2023-01-18T22:52:09.695Z,99727.63
2023-01-18T22:54:37.492Z,99724.19
2023-01-18T22:57:05.692Z,99725.72
2023-01-18T22:59:33.558Z,99724.03
2023-01-18T23:02:01.365Z,99725.72
2023-01-18T23:04:29.421Z,99718.31
2023-01-18T23:07:00.777Z,99712.19
2023-01-18T23:09:30.377Z,99725.81
2023-01-18T23:11:58.204Z,99724.19
2023-01-18T23:14:44.149Z,99729.91
2023-01-18T23:17:29.684Z,99718.72
2023-01-18T23:19:57.591Z,99727.91
2023-01-18T23:22:25.452Z,99723.91
2023-01-18T23:24:54.655Z,99719.59
2023-01-18T23:27:22.473Z,99728.91
2023-01-18T23:29:55.393Z,99712.97
2023-01-18T23:32:26.830Z,99724.00
2023-01-18T23:34:54.968Z,99723.78
2023-01-18T23:37:23.231Z,99725.28
2023-01-18T23:40:08.688Z,99717.13
2023-01-18T23:42:55.853Z,99715.81
2023-01-18T23:45:41.780Z,99723.44
2023-01-18T23:48:29.027Z,99721.44
2023-01-18T23:51:14.513Z,99724.13
2023-01-18T23:54:00.091Z,99724.81
2023-01-18T23:56:28.803Z,99720.09
2023-01-18T23:58:58.556Z,99724.25
